Time;durP1;ratioP1;P1;durP2;ratioP2;P2;SDS_P1;SDS_P2;PMS_P1;PMS_P2;Temp;Humidity;BMP_temperature;BMP_pressure;BME280_temperature;BME280_humidity;BME280_pressure;Samples;Min_cycle;Max_cycle;Signal;HPM_P1;HPM_P2
2021/01/12 00:00:50;;;;;;;;;;;18.60;35.30;;;;;;491631;240;976;-54
2021/01/12 00:02:52;;;;;;;;;;;18.70;35.40;;;;;;491639;240;1143;-54
2021/01/12 00:04:53;;;;;;;;;;;18.70;35.40;;;;;;491860;240;1274;-54
2021/01/12 00:06:54;;;;;;;;;;;18.60;35.40;;;;;;491605;240;1194;-54
2021/01/12 00:08:56;;;;;;;;;;;18.60;35.40;;;;;;491656;240;1071;-54
2021/01/12 00:10:57;;;;;;;;;;;18.60;35.40;;;;;;491717;240;1085;-53
2021/01/12 00:12:59;;;;;;;;;;;18.60;35.40;;;;;;491690;240;1038;-54
2021/01/12 00:15:00;;;;;;;;;;;18.60;35.40;;;;;;491798;240;934;-54
2021/01/12 00:17:01;;;;;;;;;;;18.50;35.40;;;;;;491624;240;2160;-53
2021/01/12 00:19:02;;;;;;;;;;;18.50;35.40;;;;;;491728;240;994;-54
2021/01/12 00:21:04;;;;;;;;;;;18.50;35.40;;;;;;491808;240;1285;-54
2021/01/12 00:23:05;;;;;;;;;;;18.50;35.40;;;;;;491717;240;1078;-54
2021/01/12 00:25:06;;;;;;;;;;;18.50;35.50;;;;;;491621;240;1171;-54
2021/01/12 00:27:08;;;;;;;;;;;18.50;35.50;;;;;;491949;240;936;-54
2021/01/12 00:29:09;;;;;;;;;;;18.50;35.50;;;;;;491642;240;1055;-54
2021/01/12 00:31:10;;;;;;;;;;;18.50;35.50;;;;;;491560;240;1131;-54
2021/01/12 00:33:12;;;;;;;;;;;18.50;35.50;;;;;;491628;240;1049;-54
2021/01/12 00:35:13;;;;;;;;;;;18.50;35.50;;;;;;491593;240;1207;-54
2021/01/12 00:37:14;;;;;;;;;;;18.40;35.50;;;;;;491679;240;2168;-54
2021/01/12 00:39:15;;;;;;;;;;;18.40;35.50;;;;;;491574;240;1047;-54
2021/01/12 00:41:17;;;;;;;;;;;18.40;34.20;;;;;;491565;240;1210;-54
2021/01/12 00:43:19;;;;;;;;;;;18.40;35.50;;;;;;491656;240;1028;-54
2021/01/12 00:45:19;;;;;;;;;;;18.40;35.50;;;;;;491561;240;2427;-54
2021/01/12 00:47:23;;;;;;;;;;;18.40;35.50;;;;;;491505;240;1218;-54
2021/01/12 00:49:22;;;;;;;;;;;18.40;35.50;;;;;;491633;241;2368;-54
2021/01/12 00:51:23;;;;;;;;;;;18.40;35.60;;;;;;491642;240;1246;-53
2021/01/12 00:53:24;;;;;;;;;;;18.40;35.60;;;;;;491629;240;1039;-53
2021/01/12 00:55:26;;;;;;;;;;;18.40;35.60;;;;;;491610;240;1069;-53
2021/01/12 00:57:27;;;;;;;;;;;18.40;35.60;;;;;;491598;240;2125;-54
2021/01/12 00:59:28;;;;;;;;;;;18.40;35.60;;;;;;491742;240;1049;-54
2021/01/12 01:01:29;;;;;;;;;;;18.40;35.60;;;;;;491677;240;1183;-54
2021/01/12 01:03:31;;;;;;;;;;;18.30;35.60;;;;;;491599;240;1103;-54
2021/01/12 01:05:32;;;;;;;;;;;18.30;35.60;;;;;;491774;240;1083;-54
2021/01/12 01:07:33;;;;;;;;;;;18.30;35.60;;;;;;491622;240;1257;-54
2021/01/12 01:09:35;;;;;;;;;;;18.30;35.60;;;;;;491665;240;1020;-54
2021/01/12 01:11:36;;;;;;;;;;;18.30;34.30;;;;;;491687;240;1562;-54
2021/01/12 01:13:37;;;;;;;;;;;18.30;35.70;;;;;;491656;240;1087;-54
2021/01/12 01:15:38;;;;;;;;;;;18.30;35.60;;;;;;491594;240;1475;-53
2021/01/12 01:17:40;;;;;;;;;;;18.30;35.60;;;;;;491527;240;2184;-54
2021/01/12 01:19:41;;;;;;;;;;;18.30;35.60;;;;;;491592;240;1019;-54
2021/01/12 01:21:42;;;;;;;;;;;18.30;35.60;;;;;;491554;240;1176;-54
2021/01/12 01:23:44;;;;;;;;;;;18.30;35.60;;;;;;491611;240;1136;-53
2021/01/12 01:25:45;;;;;;;;;;;18.30;35.60;;;;;;491506;240;1241;-54
2021/01/12 01:27:46;;;;;;;;;;;18.30;35.60;;;;;;491770;240;1145;-54
2021/01/12 01:29:47;;;;;;;;;;;18.30;35.60;;;;;;491605;240;1038;-54
2021/01/12 01:31:49;;;;;;;;;;;18.30;35.50;;;;;;491619;240;1144;-54
2021/01/12 01:33:50;;;;;;;;;;;18.30;35.50;;;;;;491778;240;1135;-54
2021/01/12 01:35:51;;;;;;;;;;;18.30;35.30;;;;;;491553;240;1156;-53
2021/01/12 01:37:53;;;;;;;;;;;18.40;35.30;;;;;;491587;240;2191;-54
2021/01/12 01:39:54;;;;;;;;;;;18.40;35.20;;;;;;491666;240;1050;-54
2021/01/12 01:41:55;;;;;;;;;;;18.40;33.90;;;;;;491545;240;1166;-54
2021/01/12 01:43:56;;;;;;;;;;;18.40;35.10;;;;;;491840;240;1038;-54
2021/01/12 01:45:58;;;;;;;;;;;18.50;35.10;;;;;;491668;240;1349;-53
2021/01/12 01:47:59;;;;;;;;;;;18.50;35.10;;;;;;491602;240;1203;-54
2021/01/12 01:50:00;;;;;;;;;;;18.50;35.00;;;;;;491757;240;1038;-54
2021/01/12 01:52:01;;;;;;;;;;;18.60;35.10;;;;;;491747;240;1225;-54
2021/01/12 01:54:03;;;;;;;;;;;18.60;35.00;;;;;;491590;240;985;-53
2021/01/12 01:56:04;;;;;;;;;;;18.60;35.00;;;;;;491608;240;1474;-54
2021/01/12 01:58:05;;;;;;;;;;;18.60;34.90;;;;;;491682;240;2187;-54
2021/01/12 02:00:07;;;;;;;;;;;18.60;34.90;;;;;;491597;240;977;-53
2021/01/12 02:02:08;;;;;;;;;;;18.60;33.60;;;;;;491604;240;1327;-54
2021/01/12 02:04:10;;;;;;;;;;;18.70;33.60;;;;;;491651;240;996;-54
2021/01/12 02:06:11;;;;;;;;;;;18.70;34.80;;;;;;491569;240;1065;-54
2021/01/12 02:08:12;;;;;;;;;;;18.70;34.70;;;;;;491765;240;1281;-54
2021/01/12 02:10:14;;;;;;;;;;;18.70;34.70;;;;;;491683;240;1051;-54
2021/01/12 02:12:15;;;;;;;;;;;18.80;34.70;;;;;;491652;240;1309;-54
2021/01/12 02:14:16;;;;;;;;;;;18.80;34.70;;;;;;491679;240;1037;-54
2021/01/12 02:16:17;;;;;;;;;;;18.80;34.70;;;;;;491647;240;1336;-54
2021/01/12 02:18:19;;;;;;;;;;;18.80;34.70;;;;;;491658;240;2180;-54
2021/01/12 02:20:21;;;;;;;;;;;18.80;34.60;;;;;;491741;240;989;-54
2021/01/12 02:22:22;;;;;;;;;;;18.90;34.60;;;;;;491623;240;1448;-54
2021/01/12 02:24:23;;;;;;;;;;;18.90;34.60;;;;;;491684;240;1064;-54
2021/01/12 02:26:25;;;;;;;;;;;18.90;34.50;;;;;;491787;240;1532;-54
2021/01/12 02:28:26;;;;;;;;;;;18.90;34.50;;;;;;491739;240;1144;-55
2021/01/12 02:30:27;;;;;;;;;;;18.90;34.50;;;;;;491648;240;1031;-54
2021/01/12 02:32:28;;;;;;;;;;;19.00;34.50;;;;;;491582;240;1205;-54
2021/01/12 02:34:30;;;;;;;;;;;19.00;34.50;;;;;;491595;240;1191;-54
2021/01/12 02:36:31;;;;;;;;;;;19.00;34.50;;;;;;491799;240;1189;-54
2021/01/12 02:38:32;;;;;;;;;;;19.00;34.40;;;;;;491821;240;2180;-54
2021/01/12 02:40:34;;;;;;;;;;;19.00;34.40;;;;;;491618;240;975;-54
2021/01/12 02:42:35;;;;;;;;;;;19.10;34.40;;;;;;491651;240;1441;-54
2021/01/12 02:44:36;;;;;;;;;;;19.10;33.10;;;;;;491768;240;1050;-54
2021/01/12 02:46:38;;;;;;;;;;;19.10;34.40;;;;;;491701;240;1211;-54
2021/01/12 02:48:39;;;;;;;;;;;19.10;34.30;;;;;;491650;240;1023;-53
2021/01/12 02:50:40;;;;;;;;;;;19.10;34.30;;;;;;491557;240;1158;-54
2021/01/12 02:52:41;;;;;;;;;;;19.10;34.30;;;;;;491587;240;1222;-54
2021/01/12 02:54:43;;;;;;;;;;;19.10;34.30;;;;;;491610;240;1015;-54
2021/01/12 02:56:44;;;;;;;;;;;19.20;34.30;;;;;;491709;240;1296;-54
2021/01/12 02:58:45;;;;;;;;;;;19.20;34.20;;;;;;491589;240;2199;-54
2021/01/12 03:00:46;;;;;;;;;;;19.20;34.20;;;;;;491631;240;1064;-55
2021/01/12 03:02:48;;;;;;;;;;;19.20;34.20;;;;;;491608;240;1113;-54
2021/01/12 03:04:49;;;;;;;;;;;19.20;34.20;;;;;;491594;240;1050;-55
2021/01/12 03:06:50;;;;;;;;;;;19.20;34.20;;;;;;491534;240;1224;-54
2021/01/12 03:08:52;;;;;;;;;;;19.30;34.20;;;;;;491655;240;1159;-54
2021/01/12 03:10:53;;;;;;;;;;;19.30;34.10;;;;;;491615;240;1101;-54
2021/01/12 03:12:54;;;;;;;;;;;19.30;34.10;;;;;;491598;240;1206;-53
2021/01/12 03:14:55;;;;;;;;;;;19.30;34.10;;;;;;491603;240;1218;-54
2021/01/12 03:16:59;;;;;;;;;;;19.30;34.10;;;;;;491584;240;1336;-54
2021/01/12 03:18:58;;;;;;;;;;;19.30;34.00;;;;;;491630;241;2113;-54
2021/01/12 03:20:59;;;;;;;;;;;19.30;34.10;;;;;;491642;240;1047;-54
2021/01/12 03:23:00;;;;;;;;;;;19.30;34.00;;;;;;491559;240;1173;-54
2021/01/12 03:25:02;;;;;;;;;;;19.40;32.70;;;;;;491630;240;1136;-54
2021/01/12 03:27:03;;;;;;;;;;;19.40;34.00;;;;;;491564;240;1322;-54
2021/01/12 03:29:04;;;;;;;;;;;19.40;34.00;;;;;;491588;240;1062;-54
2021/01/12 03:31:06;;;;;;;;;;;19.40;34.00;;;;;;491486;240;1265;-54
2021/01/12 03:33:07;;;;;;;;;;;19.40;34.00;;;;;;491649;240;1135;-54
2021/01/12 03:35:08;;;;;;;;;;;19.40;34.00;;;;;;491534;240;1326;-54
2021/01/12 03:37:09;;;;;;;;;;;19.40;33.90;;;;;;491793;240;1143;-54
2021/01/12 03:39:11;;;;;;;;;;;19.40;33.90;;;;;;491589;240;2129;-54
2021/01/12 03:41:14;;;;;;;;;;;19.50;33.90;;;;;;491619;240;1361;-54
2021/01/12 03:43:15;;;;;;;;;;;19.50;33.90;;;;;;491624;240;1050;-54
2021/01/12 03:45:17;;;;;;;;;;;19.50;33.90;;;;;;491575;240;1230;-54
2021/01/12 03:47:18;;;;;;;;;;;19.50;33.90;;;;;;491635;240;1291;-54
2021/01/12 03:49:19;;;;;;;;;;;19.50;33.80;;;;;;491783;240;1207;-53
2021/01/12 03:51:20;;;;;;;;;;;19.50;33.80;;;;;;491598;240;1544;-54
2021/01/12 03:53:22;;;;;;;;;;;19.60;33.90;;;;;;491678;240;1189;-54
2021/01/12 03:55:23;;;;;;;;;;;19.60;33.90;;;;;;491659;240;1471;-54
2021/01/12 03:57:24;;;;;;;;;;;19.60;33.90;;;;;;491585;240;1172;-54
2021/01/12 03:59:25;;;;;;;;;;;19.50;33.80;;;;;;491967;240;2196;-55
2021/01/12 04:01:27;;;;;;;;;;;19.60;33.80;;;;;;491552;240;1325;-53
2021/01/12 04:03:28;;;;;;;;;;;19.60;33.80;;;;;;491622;240;1113;-54
2021/01/12 04:05:29;;;;;;;;;;;19.60;33.80;;;;;;491631;240;1216;-54
2021/01/12 04:07:31;;;;;;;;;;;19.60;33.80;;;;;;491603;240;1243;-54
2021/01/12 04:09:32;;;;;;;;;;;19.60;33.80;;;;;;491654;240;1178;-54
2021/01/12 04:11:34;;;;;;;;;;;19.60;33.80;;;;;;491580;240;1203;-54
2021/01/12 04:13:34;;;;;;;;;;;19.60;33.70;;;;;;491619;240;1455;-54
2021/01/12 04:15:36;;;;;;;;;;;19.60;33.70;;;;;;491564;240;1212;-54
2021/01/12 04:17:37;;;;;;;;;;;19.70;33.80;;;;;;491709;240;2133;-54
2021/01/12 04:19:38;;;;;;;;;;;19.60;32.40;;;;;;491620;240;976;-54
2021/01/12 04:21:40;;;;;;;;;;;19.70;33.80;;;;;;491614;240;1207;-54
2021/01/12 04:23:41;;;;;;;;;;;19.70;33.80;;;;;;491576;240;1162;-54
2021/01/12 04:25:42;;;;;;;;;;;19.70;33.70;;;;;;491457;240;1623;-54
2021/01/12 04:27:43;;;;;;;;;;;19.70;33.70;;;;;;491513;240;1074;-54
2021/01/12 04:29:45;;;;;;;;;;;19.70;33.70;;;;;;491747;240;1089;-54
2021/01/12 04:31:46;;;;;;;;;;;19.70;33.70;;;;;;491745;240;1219;-54
2021/01/12 04:33:47;;;;;;;;;;;19.70;33.70;;;;;;491617;240;1205;-54
2021/01/12 04:35:48;;;;;;;;;;;19.70;33.70;;;;;;491603;240;1179;-53
2021/01/12 04:37:50;;;;;;;;;;;19.70;33.70;;;;;;491602;240;2180;-54
2021/01/12 04:39:51;;;;;;;;;;;19.70;32.30;;;;;;491650;240;1189;-54
2021/01/12 04:41:52;;;;;;;;;;;19.80;33.70;;;;;;491587;240;1033;-54
2021/01/12 04:43:54;;;;;;;;;;;19.70;33.60;;;;;;491701;240;973;-54
2021/01/12 04:45:55;;;;;;;;;;;19.70;33.60;;;;;;491592;240;1153;-54
2021/01/12 04:47:56;;;;;;;;;;;19.70;32.30;;;;;;491776;240;1090;-54
2021/01/12 04:49:58;;;;;;;;;;;19.80;33.70;;;;;;491743;240;1091;-54
2021/01/12 04:51:59;;;;;;;;;;;19.80;33.60;;;;;;491617;240;1084;-54
2021/01/12 04:54:00;;;;;;;;;;;19.80;33.60;;;;;;491627;240;1051;-55
2021/01/12 04:56:02;;;;;;;;;;;19.80;33.60;;;;;;491573;240;1322;-55
2021/01/12 04:58:03;;;;;;;;;;;19.80;33.60;;;;;;491528;240;2132;-54
2021/01/12 05:00:04;;;;;;;;;;;19.80;33.60;;;;;;491573;240;978;-54
2021/01/12 05:02:06;;;;;;;;;;;19.80;33.60;;;;;;491514;240;1113;-54
2021/01/12 05:04:07;;;;;;;;;;;19.80;33.60;;;;;;491577;240;1211;-54
2021/01/12 05:06:08;;;;;;;;;;;19.80;32.20;;;;;;491559;240;1298;-54
2021/01/12 05:08:10;;;;;;;;;;;19.80;33.60;;;;;;491551;240;1347;-54
2021/01/12 05:10:11;;;;;;;;;;;19.90;33.60;;;;;;491731;240;1165;-54
2021/01/12 05:12:12;;;;;;;;;;;19.80;33.60;;;;;;491584;240;1207;-54
2021/01/12 05:14:14;;;;;;;;;;;19.90;33.60;;;;;;491648;240;1196;-54
2021/01/12 05:16:15;;;;;;;;;;;19.90;33.60;;;;;;491573;240;1072;-54
2021/01/12 05:18:17;;;;;;;;;;;19.90;33.50;;;;;;491537;240;2183;-54
2021/01/12 05:20:17;;;;;;;;;;;19.90;33.50;;;;;;491553;240;1384;-54
2021/01/12 05:22:19;;;;;;;;;;;19.90;33.50;;;;;;491597;240;1285;-54
2021/01/12 05:24:21;;;;;;;;;;;19.90;33.50;;;;;;491533;240;1056;-54
2021/01/12 05:26:21;;;;;;;;;;;19.90;33.50;;;;;;491462;240;2075;-54
2021/01/12 05:28:22;;;;;;;;;;;19.90;33.50;;;;;;491531;240;1690;-54
2021/01/12 05:30:24;;;;;;;;;;;19.90;33.50;;;;;;491677;240;1311;-54
2021/01/12 05:32:25;;;;;;;;;;;19.90;33.50;;;;;;491536;240;1444;-54
2021/01/12 05:34:26;;;;;;;;;;;19.90;33.40;;;;;;491497;240;1263;-54
2021/01/12 05:36:28;;;;;;;;;;;19.90;32.10;;;;;;491363;240;1236;-54
2021/01/12 05:38:29;;;;;;;;;;;19.90;33.50;;;;;;491547;240;2132;-54
2021/01/12 05:40:30;;;;;;;;;;;19.90;33.40;;;;;;491352;240;1264;-54
2021/01/12 05:42:32;;;;;;;;;;;20.00;33.50;;;;;;491540;240;1350;-54
2021/01/12 05:44:33;;;;;;;;;;;20.00;33.50;;;;;;491566;240;1114;-54
2021/01/12 05:46:34;;;;;;;;;;;20.00;33.50;;;;;;491489;240;1191;-54
2021/01/12 05:48:36;;;;;;;;;;;20.00;33.50;;;;;;491432;240;1144;-54
2021/01/12 05:50:37;;;;;;;;;;;20.00;33.40;;;;;;491465;240;1076;-54
2021/01/12 05:52:39;;;;;;;;;;;20.00;33.40;;;;;;491422;240;1668;-54
2021/01/12 05:54:40;;;;;;;;;;;20.00;33.40;;;;;;491312;240;1086;-54
2021/01/12 05:56:41;;;;;;;;;;;20.00;33.40;;;;;;491237;240;2239;-55
2021/01/12 05:58:42;;;;;;;;;;;20.00;33.40;;;;;;491186;240;2154;-54
2021/01/12 06:00:44;;;;;;;;;;;20.00;33.40;;;;;;491305;240;1267;-54
2021/01/12 06:02:45;;;;;;;;;;;20.00;33.40;;;;;;491344;240;1309;-54
2021/01/12 06:04:48;;;;;;;;;;;20.10;33.40;;;;;;491424;240;982;-54
2021/01/12 06:06:49;;;;;;;;;;;20.10;33.40;;;;;;491355;240;1323;-54
2021/01/12 06:08:51;;;;;;;;;;;20.00;33.40;;;;;;491455;240;1066;-54
2021/01/12 06:10:52;;;;;;;;;;;20.10;32.10;;;;;;491336;240;1192;-54
2021/01/12 06:12:53;;;;;;;;;;;20.10;33.40;;;;;;491112;240;1327;-54
2021/01/12 06:14:54;;;;;;;;;;;20.10;32.00;;;;;;491277;240;952;-54
2021/01/12 06:16:56;;;;;;;;;;;20.10;33.30;;;;;;491183;240;1196;-54
2021/01/12 06:18:57;;;;;;;;;;;20.10;33.40;;;;;;491386;240;2175;-54
2021/01/12 06:20:58;;;;;;;;;;;20.10;33.30;;;;;;491290;240;1085;-54
2021/01/12 06:23:00;;;;;;;;;;;20.10;33.30;;;;;;491234;240;1131;-54
2021/01/12 06:25:01;;;;;;;;;;;20.10;33.30;;;;;;491147;240;1233;-54
2021/01/12 06:27:02;;;;;;;;;;;20.10;33.30;;;;;;491170;240;1226;-54
2021/01/12 06:29:05;;;;;;;;;;;20.10;32.50;;;;;;491109;240;1273;-54
2021/01/12 06:31:06;;;;;;;;;;;20.20;33.50;;;;;;491150;240;1091;-54
2021/01/12 06:33:07;;;;;;;;;;;20.20;33.40;;;;;;491131;240;1119;-54
2021/01/12 06:35:09;;;;;;;;;;;20.20;33.30;;;;;;491202;240;1030;-54
2021/01/12 06:37:10;;;;;;;;;;;20.20;33.40;;;;;;491125;240;1237;-53
2021/01/12 06:39:11;;;;;;;;;;;20.10;33.40;;;;;;491236;240;2191;-54
2021/01/12 06:41:12;;;;;;;;;;;20.10;33.40;;;;;;491207;240;1164;-54
2021/01/12 06:43:14;;;;;;;;;;;20.00;33.50;;;;;;491104;240;1268;-54
2021/01/12 06:45:15;;;;;;;;;;;20.00;33.60;;;;;;491079;240;1079;-53
2021/01/12 06:47:16;;;;;;;;;;;19.90;33.60;;;;;;491176;240;1111;-54
2021/01/12 06:49:17;;;;;;;;;;;19.90;33.70;;;;;;491127;240;1129;-53
2021/01/12 06:51:19;;;;;;;;;;;19.90;33.80;;;;;;491169;240;1086;-53
2021/01/12 06:53:20;;;;;;;;;;;19.80;33.80;;;;;;491132;240;1189;-53
2021/01/12 06:55:22;;;;;;;;;;;19.80;33.90;;;;;;490992;240;1057;-54
2021/01/12 06:57:23;;;;;;;;;;;19.70;33.90;;;;;;490827;240;1227;-54
2021/01/12 06:59:24;;;;;;;;;;;19.70;34.00;;;;;;490990;240;2196;-55
2021/01/12 07:01:26;;;;;;;;;;;19.70;34.00;;;;;;490841;240;1094;-54
2021/01/12 07:03:27;;;;;;;;;;;19.60;34.10;;;;;;490828;240;1248;-54
2021/01/12 07:05:28;;;;;;;;;;;19.60;34.20;;;;;;491032;240;1055;-54
2021/01/12 07:07:29;;;;;;;;;;;19.60;34.20;;;;;;490975;240;1145;-54
2021/01/12 07:09:31;;;;;;;;;;;19.60;34.20;;;;;;491033;240;1051;-54
2021/01/12 07:11:32;;;;;;;;;;;19.50;34.20;;;;;;490943;240;1201;-54
2021/01/12 07:13:33;;;;;;;;;;;19.50;34.20;;;;;;491150;240;1273;-54
2021/01/12 07:15:34;;;;;;;;;;;19.50;34.30;;;;;;490996;240;1213;-54
2021/01/12 07:17:36;;;;;;;;;;;19.40;34.40;;;;;;490911;240;1321;-53
2021/01/12 07:19:37;;;;;;;;;;;19.40;34.40;;;;;;491053;240;2137;-54
2021/01/12 07:21:39;;;;;;;;;;;19.40;33.20;;;;;;490708;240;1389;-54
2021/01/12 07:23:40;;;;;;;;;;;19.40;34.50;;;;;;491006;240;1093;-54
2021/01/12 07:25:41;;;;;;;;;;;19.30;33.20;;;;;;490914;240;1054;-54
2021/01/12 07:27:43;;;;;;;;;;;19.30;34.50;;;;;;490763;240;1215;-54
2021/01/12 07:29:44;;;;;;;;;;;19.30;34.60;;;;;;490997;240;1201;-54
2021/01/12 07:31:45;;;;;;;;;;;19.30;34.60;;;;;;490812;240;1164;-53
2021/01/12 07:33:46;;;;;;;;;;;19.20;34.60;;;;;;490975;240;1132;-54
2021/01/12 07:35:48;;;;;;;;;;;19.20;34.60;;;;;;490985;240;1206;-54
2021/01/12 07:37:49;;;;;;;;;;;19.20;34.60;;;;;;491039;240;1255;-54
2021/01/12 07:39:50;;;;;;;;;;;19.20;34.60;;;;;;490801;240;2196;-54
2021/01/12 07:41:51;;;;;;;;;;;19.20;33.40;;;;;;490809;240;1211;-55
2021/01/12 07:43:53;;;;;;;;;;;19.10;34.70;;;;;;490833;240;1260;-53
2021/01/12 07:45:54;;;;;;;;;;;19.10;34.70;;;;;;491023;240;1322;-53
2021/01/12 07:47:56;;;;;;;;;;;19.20;34.70;;;;;;490947;240;1081;-54
2021/01/12 07:49:57;;;;;;;;;;;19.10;34.70;;;;;;491019;240;1131;-53
2021/01/12 07:51:58;;;;;;;;;;;19.10;34.80;;;;;;491099;240;1208;-54
2021/01/12 07:54:00;;;;;;;;;;;19.10;34.80;;;;;;490987;240;1062;-53
2021/01/12 07:56:01;;;;;;;;;;;19.10;33.50;;;;;;490946;240;1094;-54
2021/01/12 07:58:02;;;;;;;;;;;19.00;33.50;;;;;;490901;240;1149;-54
2021/01/12 08:00:03;;;;;;;;;;;19.00;34.80;;;;;;491045;240;2132;-54
2021/01/12 08:02:05;;;;;;;;;;;19.00;34.80;;;;;;490973;240;1176;-54
2021/01/12 08:04:06;;;;;;;;;;;19.00;34.80;;;;;;490783;240;1107;-54
2021/01/12 08:06:07;;;;;;;;;;;19.00;34.80;;;;;;490811;240;1203;-54
2021/01/12 08:08:09;;;;;;;;;;;19.00;34.80;;;;;;490876;240;1090;-53
2021/01/12 08:10:10;;;;;;;;;;;19.00;34.90;;;;;;490811;240;1106;-54
2021/01/12 08:12:12;;;;;;;;;;;19.00;34.90;;;;;;490850;240;1230;-54
2021/01/12 08:14:13;;;;;;;;;;;19.00;34.90;;;;;;490833;240;1076;-54
2021/01/12 08:16:14;;;;;;;;;;;18.90;34.90;;;;;;490776;240;1077;-54
2021/01/12 08:18:15;;;;;;;;;;;18.90;34.90;;;;;;490804;240;1173;-53
2021/01/12 08:20:17;;;;;;;;;;;18.90;33.70;;;;;;490930;240;2183;-54
2021/01/12 08:22:18;;;;;;;;;;;18.90;34.90;;;;;;490734;240;1088;-54
2021/01/12 08:24:19;;;;;;;;;;;18.90;35.00;;;;;;490856;240;1077;-54
2021/01/12 08:26:21;;;;;;;;;;;18.90;34.90;;;;;;490959;240;1049;-54
2021/01/12 08:28:25;;;;;;;;;;;18.90;34.90;;;;;;490779;240;1202;-54
2021/01/12 08:30:23;;;;;;;;;;;18.90;33.70;;;;;;490745;242;1427;-54
2021/01/12 08:32:24;;;;;;;;;;;18.90;35.10;;;;;;490703;240;1155;-54
2021/01/12 08:34:26;;;;;;;;;;;18.90;35.10;;;;;;490921;240;1338;-53
2021/01/12 08:36:27;;;;;;;;;;;18.90;35.10;;;;;;490783;240;1241;-54
2021/01/12 08:38:29;;;;;;;;;;;18.90;35.10;;;;;;490883;240;1230;-54
2021/01/12 08:40:30;;;;;;;;;;;18.80;35.10;;;;;;490716;240;2204;-54
2021/01/12 08:42:32;;;;;;;;;;;18.90;35.20;;;;;;490781;240;1196;-54
2021/01/12 08:44:33;;;;;;;;;;;18.80;33.90;;;;;;490947;240;1074;-54
2021/01/12 08:46:35;;;;;;;;;;;18.80;35.30;;;;;;490926;240;1209;-54
2021/01/12 08:48:36;;;;;;;;;;;18.80;35.30;;;;;;490936;240;1034;-55
2021/01/12 08:50:37;;;;;;;;;;;18.80;35.30;;;;;;490948;240;1029;-54
2021/01/12 08:52:38;;;;;;;;;;;18.80;35.30;;;;;;490913;240;1100;-54
2021/01/12 08:54:40;;;;;;;;;;;18.80;34.00;;;;;;490746;240;1273;-54
2021/01/12 08:56:41;;;;;;;;;;;18.80;35.30;;;;;;490714;240;1066;-54
2021/01/12 08:58:43;;;;;;;;;;;18.80;35.30;;;;;;490762;240;1179;-53
2021/01/12 09:00:44;;;;;;;;;;;18.80;35.30;;;;;;490854;240;2133;-53
2021/01/12 09:02:46;;;;;;;;;;;18.80;35.30;;;;;;490898;240;1200;-54
2021/01/12 09:04:47;;;;;;;;;;;18.80;35.30;;;;;;490836;240;1096;-53
2021/01/12 09:06:48;;;;;;;;;;;18.80;34.00;;;;;;490831;240;1019;-54
2021/01/12 09:08:50;;;;;;;;;;;18.80;34.00;;;;;;490877;240;1085;-54
2021/01/12 09:10:51;;;;;;;;;;;18.80;34.00;;;;;;490956;240;1212;-54
2021/01/12 09:12:52;;;;;;;;;;;18.80;35.30;;;;;;490894;240;1138;-54
2021/01/12 09:14:54;;;;;;;;;;;18.80;35.30;;;;;;490944;240;1105;-53
2021/01/12 09:16:55;;;;;;;;;;;18.80;34.10;;;;;;490910;240;1239;-54
2021/01/12 09:18:56;;;;;;;;;;;18.80;35.40;;;;;;490861;240;1115;-54
2021/01/12 09:20:57;;;;;;;;;;;18.80;35.40;;;;;;490830;240;2183;-54
2021/01/12 09:22:59;;;;;;;;;;;18.70;35.30;;;;;;490694;240;1134;-54
2021/01/12 09:25:00;;;;;;;;;;;18.80;34.10;;;;;;490913;240;1098;-53
2021/01/12 09:27:01;;;;;;;;;;;18.70;35.30;;;;;;490936;240;1226;-54
2021/01/12 09:29:02;;;;;;;;;;;18.80;35.40;;;;;;490998;240;1093;-54
2021/01/12 09:31:04;;;;;;;;;;;18.80;35.40;;;;;;490896;240;1022;-53
2021/01/12 09:33:05;;;;;;;;;;;18.70;35.30;;;;;;490849;240;1149;-54
2021/01/12 09:35:06;;;;;;;;;;;18.70;35.40;;;;;;490970;240;1031;-54
2021/01/12 09:37:08;;;;;;;;;;;18.70;35.40;;;;;;490935;240;1208;-54
2021/01/12 09:39:12;;;;;;;;;;;18.80;34.10;;;;;;490843;240;1101;-54
2021/01/12 09:41:11;;;;;;;;;;;18.70;35.30;;;;;;490706;241;2197;-54
2021/01/12 09:43:13;;;;;;;;;;;18.70;35.30;;;;;;490678;240;1134;-54
2021/01/12 09:45:14;;;;;;;;;;;18.80;35.40;;;;;;490897;240;1179;-54
2021/01/12 09:47:15;;;;;;;;;;;18.70;35.30;;;;;;490778;240;1143;-54
2021/01/12 09:49:17;;;;;;;;;;;18.70;34.00;;;;;;490740;240;1132;-54
2021/01/12 09:51:18;;;;;;;;;;;18.70;35.30;;;;;;490778;240;1096;-54
2021/01/12 09:53:19;;;;;;;;;;;18.70;34.10;;;;;;490812;240;1169;-54
2021/01/12 09:55:21;;;;;;;;;;;18.70;35.30;;;;;;490836;240;1127;-54
2021/01/12 09:57:22;;;;;;;;;;;18.70;35.30;;;;;;490803;242;1328;-54
2021/01/12 09:59:23;;;;;;;;;;;18.70;35.30;;;;;;490841;240;1171;-54
2021/01/12 10:01:24;;;;;;;;;;;18.70;35.30;;;;;;490809;240;2195;-54
2021/01/12 10:03:26;;;;;;;;;;;18.70;35.30;;;;;;490789;240;1093;-54
2021/01/12 10:05:27;;;;;;;;;;;18.70;35.30;;;;;;490950;240;1105;-54
2021/01/12 10:07:28;;;;;;;;;;;18.70;35.30;;;;;;490899;240;1028;-54
2021/01/12 10:09:30;;;;;;;;;;;18.80;35.40;;;;;;490928;240;1137;-53
2021/01/12 10:11:31;;;;;;;;;;;18.80;35.30;;;;;;490972;240;1224;-53
2021/01/12 10:13:32;;;;;;;;;;;18.70;35.30;;;;;;490839;240;1175;-54
2021/01/12 10:15:34;;;;;;;;;;;18.70;34.00;;;;;;490923;240;1156;-54
2021/01/12 10:17:35;;;;;;;;;;;18.70;35.30;;;;;;491150;240;1071;-53
2021/01/12 10:19:36;;;;;;;;;;;18.70;35.30;;;;;;490903;240;2196;-54
2021/01/12 10:21:37;;;;;;;;;;;18.80;35.30;;;;;;490858;240;1083;-54
2021/01/12 10:23:39;;;;;;;;;;;18.70;35.30;;;;;;490844;240;1034;-53
2021/01/12 10:25:40;;;;;;;;;;;18.70;35.30;;;;;;490860;240;1225;-53
2021/01/12 10:27:41;;;;;;;;;;;18.70;35.30;;;;;;491117;240;1122;-53
2021/01/12 10:29:43;;;;;;;;;;;18.70;35.30;;;;;;490806;240;1100;-54
2021/01/12 10:31:44;;;;;;;;;;;18.70;35.30;;;;;;490843;240;1069;-54
2021/01/12 10:33:45;;;;;;;;;;;18.70;35.30;;;;;;490948;240;1040;-53
2021/01/12 10:35:47;;;;;;;;;;;18.70;34.00;;;;;;490892;240;987;-53
2021/01/12 10:37:48;;;;;;;;;;;18.70;35.30;;;;;;490636;240;1108;-54
2021/01/12 10:39:50;;;;;;;;;;;18.70;34.00;;;;;;490808;240;2144;-54
2021/01/12 10:41:53;;;;;;;;;;;18.70;34.00;;;;;;490822;240;1208;-54
2021/01/12 10:43:55;;;;;;;;;;;18.70;35.30;;;;;;491074;240;1739;-54
2021/01/12 10:45:56;;;;;;;;;;;18.70;35.30;;;;;;490699;240;1224;-54
2021/01/12 10:47:57;;;;;;;;;;;18.70;33.90;;;;;;490708;240;1243;-54
2021/01/12 10:49:58;;;;;;;;;;;18.70;35.30;;;;;;491036;240;1097;-54
2021/01/12 10:52:00;;;;;;;;;;;18.60;35.20;;;;;;490836;240;1103;-53
2021/01/12 10:54:01;;;;;;;;;;;18.70;35.30;;;;;;490804;240;1177;-54
2021/01/12 10:56:03;;;;;;;;;;;18.70;35.30;;;;;;490683;240;1094;-54
2021/01/12 10:58:04;;;;;;;;;;;18.60;35.20;;;;;;490742;240;1120;-54
2021/01/12 11:00:09;;;;;;;;;;;18.70;35.30;;;;;;490944;240;2141;-53
2021/01/12 11:02:12;;;;;;;;;;;18.70;35.20;;;;;;490812;240;1261;-54
2021/01/12 11:04:12;;;;;;;;;;;18.70;35.20;;;;;;490903;240;2117;-54
2021/01/12 11:06:14;;;;;;;;;;;18.60;34.00;;;;;;490756;240;1176;-53
2021/01/12 11:08:16;;;;;;;;;;;18.60;35.20;;;;;;490753;241;1792;-54
2021/01/12 11:10:16;;;;;;;;;;;18.70;35.30;;;;;;490780;240;1358;-54
2021/01/12 11:12:23;;;;;;;;;;;18.70;35.30;;;;;;490917;240;1293;-54
2021/01/12 11:14:22;;;;;;;;;;;18.60;35.20;;;;;;490651;240;2246;-54
2021/01/12 11:16:23;;;;;;;;;;;18.60;35.20;;;;;;490812;240;1238;-54
2021/01/12 11:18:25;;;;;;;;;;;18.60;35.20;;;;;;490812;240;1124;-53
2021/01/12 11:20:27;;;;;;;;;;;18.60;35.20;;;;;;490907;240;2179;-53
2021/01/12 11:22:28;;;;;;;;;;;18.60;35.20;;;;;;490906;240;1141;-54
2021/01/12 11:24:29;;;;;;;;;;;18.60;33.90;;;;;;490887;240;1042;-54
2021/01/12 11:26:30;;;;;;;;;;;18.60;35.20;;;;;;490818;240;1199;-53
2021/01/12 11:28:32;;;;;;;;;;;18.60;35.30;;;;;;491025;240;1204;-53
2021/01/12 11:30:34;;;;;;;;;;;18.60;35.20;;;;;;490974;240;1180;-54
2021/01/12 11:32:36;;;;;;;;;;;18.60;35.20;;;;;;490931;240;2070;-54
2021/01/12 11:34:37;;;;;;;;;;;18.50;35.20;;;;;;490919;242;1234;-54
2021/01/12 11:36:40;;;;;;;;;;;18.60;35.20;;;;;;490951;240;1035;-54
2021/01/12 11:38:41;;;;;;;;;;;18.60;35.20;;;;;;491012;240;1044;-54
2021/01/12 11:40:42;;;;;;;;;;;18.50;35.20;;;;;;490597;240;2176;-54
2021/01/12 11:42:44;;;;;;;;;;;18.50;35.20;;;;;;490845;240;1331;-54
2021/01/12 11:44:45;;;;;;;;;;;18.50;35.20;;;;;;490870;240;1220;-54
2021/01/12 11:46:46;;;;;;;;;;;18.50;35.20;;;;;;490777;240;1100;-54
2021/01/12 11:48:47;;;;;;;;;;;18.50;35.20;;;;;;490753;240;1032;-54
2021/01/12 11:50:49;;;;;;;;;;;18.50;35.20;;;;;;490832;240;1076;-54
2021/01/12 11:52:50;;;;;;;;;;;18.50;35.20;;;;;;490838;240;1094;-54
2021/01/12 11:54:51;;;;;;;;;;;18.50;33.90;;;;;;490582;240;1088;-53
2021/01/12 11:56:55;;;;;;;;;;;18.50;35.20;;;;;;490808;240;1206;-54